McMinnville, Tennessee
Current Conditions -  °F | °C
As of 10:15 PM on Sunday 25 Jan 2015 (Local Time) from KRNC Reporting Station
Scattered Clouds Scattered Clouds  
Wind Chill: 37°   Ceiling: Unl
Heat Index: 43°   Visibility: 10mi
Dew Point: 43°   Wind: 9mph
Humidity: 100%   Direction: 240°WSW
Pressure: 29.7"   Gusts: NA
Location:  35.68°N, 85.77°W
Report Text: KRNC 260415Z AUTO 24008KT 10SM SCT020 06/06 A2970 RMK
Loading
Personal Weather Stations






























Interactive Weather Map New forecast layout! Learn more

10-Day Weather Forecast

Advertisements
Track Severe Weather on mobile